createdAt,value
2022-12-17T00:02:00.249Z,1013.7
2022-12-17T00:05:00.262Z,1013.6
2022-12-17T00:08:00.264Z,1013.7
2022-12-17T00:11:00.293Z,1013.5
2022-12-17T00:14:00.268Z,1013.5
2022-12-17T00:17:00.280Z,1013.6
2022-12-17T00:20:00.274Z,1013.6
2022-12-17T00:23:00.282Z,1013.6
2022-12-17T00:26:00.280Z,1013.7
2022-12-17T00:29:00.307Z,1013.7
2022-12-17T00:32:00.292Z,1013.7
2022-12-17T00:35:00.294Z,1013.7
2022-12-17T00:38:00.294Z,1013.7
2022-12-17T00:41:00.301Z,1013.7
2022-12-17T00:44:00.306Z,1013.8
2022-12-17T00:47:00.399Z,1013.8
2022-12-17T00:50:00.312Z,1013.8
2022-12-17T00:53:00.322Z,1014
2022-12-17T00:56:00.322Z,1014
2022-12-17T00:59:00.338Z,1014
2022-12-17T01:02:00.442Z,1014.1
2022-12-17T01:05:00.357Z,1014.1
2022-12-17T01:08:00.340Z,1014.2
2022-12-17T01:11:00.348Z,1014.3
2022-12-17T01:14:00.352Z,1014.3
2022-12-17T01:17:00.358Z,1014.3
2022-12-17T01:20:00.370Z,1014.3
2022-12-17T01:23:00.393Z,1014.3
2022-12-17T01:26:00.370Z,1014.3
2022-12-17T01:29:00.382Z,1014.4
2022-12-17T01:32:00.403Z,1014.4
2022-12-17T01:35:00.380Z,1014.4
2022-12-17T01:38:00.386Z,1014.4
2022-12-17T01:41:00.500Z,1014.4
2022-12-17T01:44:00.391Z,1014.5
2022-12-17T01:47:00.406Z,1014.5
2022-12-17T01:50:00.403Z,1014.3
2022-12-17T01:53:00.412Z,1014.4
2022-12-17T01:56:00.430Z,1014.4
2022-12-17T01:59:00.443Z,1014.4
2022-12-17T02:02:00.602Z,1014.5
2022-12-17T02:05:00.436Z,1014.4
2022-12-17T02:08:00.429Z,1014.4
2022-12-17T02:11:00.440Z,1014.4
2022-12-17T02:14:00.439Z,1014.4
2022-12-17T02:17:00.481Z,1014.4
2022-12-17T02:20:00.455Z,1014.6
2022-12-17T02:23:00.469Z,1014.6
2022-12-17T02:26:00.472Z,1014.6
2022-12-17T02:29:00.477Z,1014.7
2022-12-17T02:32:00.573Z,1014.7
2022-12-17T02:35:00.523Z,1014.7
2022-12-17T02:38:00.508Z,1014.7
2022-12-17T02:41:00.514Z,1014.7
2022-12-17T02:44:00.524Z,1014.8
2022-12-17T02:47:00.534Z,1014.8
2022-12-17T02:50:00.537Z,1014.8
2022-12-17T02:53:00.573Z,1014.8
2022-12-17T02:56:00.552Z,1014.8
2022-12-17T02:59:00.564Z,1014.8
2022-12-17T03:02:00.724Z,1014.8
2022-12-17T03:05:15.180Z,1014.8
2022-12-17T03:08:00.586Z,1014.9
2022-12-17T03:11:00.626Z,1014.7
2022-12-17T03:14:00.602Z,1014.7
2022-12-17T03:17:00.659Z,1014.7
2022-12-17T03:20:00.617Z,1014.8
2022-12-17T03:23:00.624Z,1014.8
2022-12-17T03:26:00.634Z,1014.8
2022-12-17T03:29:00.724Z,1014.9
2022-12-17T03:32:00.652Z,1014.9
2022-12-17T03:35:00.653Z,1014.8
2022-12-17T03:38:00.662Z,1014.9
2022-12-17T03:41:00.674Z,1014.8
2022-12-17T03:44:00.681Z,1015
2022-12-17T03:47:00.719Z,1015
2022-12-17T03:50:00.698Z,1015.1
2022-12-17T03:53:00.705Z,1015
2022-12-17T03:56:00.715Z,1015
2022-12-17T03:59:00.722Z,1015
2022-12-17T04:02:00.850Z,1015.2
2022-12-17T04:05:00.770Z,1015.2
2022-12-17T04:08:00.752Z,1015.2
2022-12-17T04:11:00.755Z,1015.3
2022-12-17T04:14:00.770Z,1015.3
2022-12-17T04:17:00.778Z,1015.3
2022-12-17T04:20:00.787Z,1015.4
2022-12-17T04:23:00.810Z,1015.4
2022-12-17T04:26:00.795Z,1015.3
2022-12-17T04:29:00.809Z,1015.3
2022-12-17T04:32:00.811Z,1015.4
2022-12-17T04:35:00.811Z,1015.4
2022-12-17T04:38:00.827Z,1015.4
2022-12-17T04:41:00.947Z,1015.3
2022-12-17T04:44:03.103Z,1015.3
2022-12-17T04:47:00.838Z,1015.4
2022-12-17T04:50:00.842Z,1015.4
2022-12-17T04:53:00.854Z,1015.3
2022-12-17T04:56:00.861Z,1015.3
2022-12-17T04:59:00.894Z,1015.3
2022-12-17T05:02:01.047Z,1015.4
2022-12-17T05:05:00.878Z,1015.5
2022-12-17T05:08:00.888Z,1015.4
2022-12-17T05:11:00.888Z,1015.5
2022-12-17T05:14:00.895Z,1015.5
2022-12-17T05:17:00.931Z,1015.5
2022-12-17T05:20:00.928Z,1015.5
2022-12-17T05:23:00.914Z,1015.5
2022-12-17T05:26:00.914Z,1015.6
2022-12-17T05:29:00.924Z,1015.6
2022-12-17T05:32:00.929Z,1015.5
2022-12-17T05:35:00.959Z,1015.6
2022-12-17T05:38:00.939Z,1015.6
2022-12-17T05:41:00.949Z,1015.7
2022-12-17T05:44:00.947Z,1015.7
2022-12-17T05:47:01.002Z,1015.7
2022-12-17T05:50:00.960Z,1015.8
2022-12-17T05:53:00.993Z,1015.8
2022-12-17T05:56:00.965Z,1015.8
2022-12-17T05:59:00.981Z,1015.8
2022-12-17T06:02:01.082Z,1015.8
2022-12-17T06:05:02.463Z,1015.8
2022-12-17T06:08:00.983Z,1016
2022-12-17T06:11:01.018Z,1016
2022-12-17T06:14:00.997Z,1016
2022-12-17T06:17:00.998Z,1016
2022-12-17T06:20:01.006Z,1016
2022-12-17T06:23:01.006Z,1016.1
2022-12-17T06:26:01.016Z,1016.1
2022-12-17T06:29:01.050Z,1016.1
2022-12-17T06:32:01.024Z,1016.2
2022-12-17T06:35:01.028Z,1016.3
2022-12-17T06:38:01.027Z,1016.3
2022-12-17T06:41:01.034Z,1016.4
2022-12-17T06:44:01.040Z,1016.3
2022-12-17T06:47:01.128Z,1016.4
2022-12-17T06:50:01.547Z,1016.4
2022-12-17T06:53:01.053Z,1016.5
2022-12-17T06:56:01.059Z,1016.6
2022-12-17T06:59:01.058Z,1016.5
2022-12-17T07:02:01.335Z,1016.5
2022-12-17T07:05:01.138Z,1016.6
2022-12-17T07:08:01.076Z,1016.8
2022-12-17T07:11:01.080Z,1016.8
2022-12-17T07:14:01.081Z,1016.8
2022-12-17T07:17:01.087Z,1016.8
2022-12-17T07:20:01.090Z,1016.9
2022-12-17T07:23:01.114Z,1016.9
2022-12-17T07:26:01.083Z,1017
2022-12-17T07:29:01.098Z,1017
2022-12-17T07:32:01.149Z,1017
2022-12-17T07:35:01.105Z,1017.1
2022-12-17T07:38:01.109Z,1017.1
2022-12-17T07:41:01.137Z,1017.2
2022-12-17T07:44:01.120Z,1017.2
2022-12-17T07:47:01.125Z,1017.3
2022-12-17T07:50:01.126Z,1017.2
2022-12-17T07:53:01.137Z,1017.3
2022-12-17T07:56:01.138Z,1017.3
2022-12-17T07:59:01.168Z,1017.4
2022-12-17T08:02:01.672Z,1017.4
2022-12-17T08:05:01.154Z,1017.3
2022-12-17T08:08:01.159Z,1017.4
2022-12-17T08:11:01.157Z,1017.4
2022-12-17T08:14:01.177Z,1017.5
2022-12-17T08:17:01.308Z,1017.5
2022-12-17T08:20:01.169Z,1017.5
2022-12-17T08:23:01.177Z,1017.6
2022-12-17T08:26:01.190Z,1017.6
2022-12-17T08:29:01.190Z,1017.6
2022-12-17T08:32:01.195Z,1017.7
2022-12-17T08:35:01.227Z,1017.7
2022-12-17T08:38:01.201Z,1017.7
2022-12-17T08:41:01.207Z,1017.8
2022-12-17T08:44:01.221Z,1017.8
2022-12-17T08:47:01.210Z,1017.9
2022-12-17T08:50:01.212Z,1017.9
2022-12-17T08:53:01.236Z,1017.9
2022-12-17T08:56:01.214Z,1018
2022-12-17T08:59:01.224Z,1018
2022-12-17T09:02:01.375Z,1018
2022-12-17T09:05:01.223Z,1018.1
2022-12-17T09:08:01.220Z,1018
2022-12-17T09:11:01.251Z,1018
2022-12-17T09:14:01.233Z,1018.1
2022-12-17T09:17:01.299Z,1018.2
2022-12-17T09:20:01.257Z,1018.1
2022-12-17T09:23:01.272Z,1018.1
2022-12-17T09:26:01.266Z,1018.2
2022-12-17T09:29:01.320Z,1018.3
2022-12-17T09:32:01.291Z,1018.2
2022-12-17T09:35:01.300Z,1018.3
2022-12-17T09:38:01.298Z,1018.3
2022-12-17T09:41:01.308Z,1018.4
2022-12-17T09:44:01.312Z,1018.4
2022-12-17T09:47:01.428Z,1018.3
2022-12-17T09:50:01.324Z,1018.4
2022-12-17T09:53:01.339Z,1018.5
2022-12-17T09:56:01.339Z,1018.5
2022-12-17T09:59:01.341Z,1018.5
2022-12-17T10:02:01.477Z,1018.5
2022-12-17T10:05:01.386Z,1018.4
2022-12-17T10:08:01.360Z,1018.4
2022-12-17T10:11:01.367Z,1018.4
2022-12-17T10:14:01.368Z,1018.4
2022-12-17T10:17:01.377Z,1018.5
2022-12-17T10:20:01.384Z,1018.4
2022-12-17T10:23:01.523Z,1018.5
2022-12-17T10:26:01.390Z,1018.5
2022-12-17T10:29:01.391Z,1018.6
2022-12-17T10:32:01.395Z,1018.5
2022-12-17T10:35:05.142Z,1018.5
2022-12-17T10:38:01.405Z,1018.5
2022-12-17T10:41:01.437Z,1018.4
2022-12-17T10:44:01.412Z,1018.5
2022-12-17T10:47:01.422Z,1018.5
2022-12-17T10:50:01.418Z,1018.5
2022-12-17T10:53:01.428Z,1018.6
2022-12-17T10:56:01.435Z,1018.6
2022-12-17T10:59:01.461Z,1018.7
2022-12-17T11:02:01.592Z,1018.6
2022-12-17T11:05:01.449Z,1018.7
2022-12-17T11:08:01.456Z,1018.6
2022-12-17T11:11:01.461Z,1018.6
2022-12-17T11:14:01.462Z,1018.6
2022-12-17T11:17:01.491Z,1018.6
2022-12-17T11:20:01.466Z,1018.6
2022-12-17T11:23:01.475Z,1018.5
2022-12-17T11:26:01.474Z,1018.4
2022-12-17T11:29:01.477Z,1018.5
2022-12-17T11:32:01.481Z,1018.6
2022-12-17T11:35:01.522Z,1018.6
2022-12-17T11:38:01.494Z,1018.7
2022-12-17T11:41:01.507Z,1018.5
2022-12-17T11:44:01.502Z,1018.5
2022-12-17T11:47:01.509Z,1018.5
2022-12-17T11:50:01.510Z,1018.5
2022-12-17T11:53:01.546Z,1018.7
2022-12-17T11:56:01.517Z,1018.6
2022-12-17T11:59:01.527Z,1018.6
2022-12-17T12:02:01.584Z,1018.6
2022-12-17T12:05:01.535Z,1018.6
2022-12-17T12:08:01.540Z,1018.6
2022-12-17T12:11:01.568Z,1018.7
2022-12-17T12:14:01.552Z,1018.7
2022-12-17T12:17:01.564Z,1018.7
2022-12-17T12:20:01.568Z,1018.7
2022-12-17T12:23:01.568Z,1018.7
2022-12-17T12:26:01.570Z,1018.7
2022-12-17T12:29:01.606Z,1018.7
2022-12-17T12:32:01.620Z,1018.7
2022-12-17T12:35:01.587Z,1018.7
2022-12-17T12:38:01.593Z,1018.7
2022-12-17T12:41:01.601Z,1018.8
2022-12-17T12:44:01.602Z,1018.7
2022-12-17T12:47:01.637Z,1018.8
2022-12-17T12:50:01.616Z,1018.8
2022-12-17T12:53:01.732Z,1018.8
2022-12-17T12:56:01.624Z,1018.9
2022-12-17T12:59:01.628Z,1018.9
2022-12-17T13:02:01.706Z,1018.9
2022-12-17T13:05:01.665Z,1018.8
2022-12-17T13:08:01.642Z,1018.8
2022-12-17T13:11:01.649Z,1018.8
2022-12-17T13:14:01.653Z,1018.8
2022-12-17T13:17:01.658Z,1018.9
2022-12-17T13:20:01.665Z,1018.8
2022-12-17T13:23:01.694Z,1018.8
2022-12-17T13:26:01.672Z,1018.9
2022-12-17T13:29:01.774Z,1018.9
2022-12-17T13:32:01.761Z,1018.8
2022-12-17T13:35:05.646Z,1018.9
2022-12-17T13:38:01.698Z,1019
2022-12-17T13:41:05.219Z,1018.9
2022-12-17T13:44:01.701Z,1018.9
2022-12-17T13:47:01.709Z,1018.9
2022-12-17T13:50:32.542Z,1019
2022-12-17T13:53:01.717Z,1019
2022-12-17T13:56:01.727Z,1019.1
2022-12-17T13:59:06.392Z,1019.1
2022-12-17T14:02:01.830Z,1019.1
2022-12-17T14:05:07.347Z,1019.1
2022-12-17T14:08:01.736Z,1019.1
2022-12-17T14:11:06.521Z,1019.1
2022-12-17T14:14:01.747Z,1019.1
2022-12-17T14:17:01.786Z,1019.2
2022-12-17T14:20:01.757Z,1019.3
2022-12-17T14:23:01.758Z,1019.3
2022-12-17T14:26:01.766Z,1019.2
2022-12-17T14:29:01.766Z,1019.2
2022-12-17T14:32:01.855Z,1019.2
2022-12-17T14:35:01.810Z,1019.3
2022-12-17T14:38:01.779Z,1019.4
2022-12-17T14:41:01.794Z,1019.4
2022-12-17T14:44:01.792Z,1019.3
2022-12-17T14:47:01.800Z,1019.4
2022-12-17T14:50:01.806Z,1019.4
2022-12-17T14:53:01.841Z,1019.5
2022-12-17T14:56:01.805Z,1019.5
2022-12-17T14:59:01.820Z,1019.5
2022-12-17T15:02:01.989Z,1019.5
2022-12-17T15:05:01.820Z,1019.5
2022-12-17T15:08:01.831Z,1019.6
2022-12-17T15:11:01.861Z,1019.6
2022-12-17T15:14:01.844Z,1019.6
2022-12-17T15:17:01.904Z,1019.6
2022-12-17T15:20:01.995Z,1019.6
2022-12-17T15:23:01.862Z,1019.6
2022-12-17T15:26:01.869Z,1019.7
2022-12-17T15:29:01.892Z,1019.7
2022-12-17T15:32:01.873Z,1019.7
2022-12-17T15:35:01.876Z,1019.7
2022-12-17T15:38:01.876Z,1019.7
2022-12-17T15:41:01.880Z,1019.8
2022-12-17T15:44:01.884Z,1019.8
2022-12-17T15:47:01.920Z,1019.8
2022-12-17T15:50:01.894Z,1019.8
2022-12-17T15:53:01.905Z,1019.9
2022-12-17T15:56:01.909Z,1019.9
2022-12-17T15:59:01.904Z,1019.9
2022-12-17T16:02:01.981Z,1019.9
2022-12-17T16:05:01.928Z,1019.9
2022-12-17T16:08:01.913Z,1019.9
2022-12-17T16:11:02.113Z,1019.9
2022-12-17T16:14:01.925Z,1019.9
2022-12-17T16:17:01.936Z,1019.8
2022-12-17T16:20:01.929Z,1019.8
2022-12-17T16:23:01.963Z,1019.8
2022-12-17T16:26:01.943Z,1019.9
2022-12-17T16:29:01.950Z,1020
2022-12-17T16:32:01.962Z,1019.9
2022-12-17T16:35:01.971Z,1019.9
2022-12-17T16:38:01.972Z,1019.9
2022-12-17T16:41:02.007Z,1019.9
2022-12-17T16:44:01.992Z,1020
2022-12-17T16:47:02.045Z,1020
2022-12-17T16:50:02.018Z,1019.9
2022-12-17T16:53:02.027Z,1020
2022-12-17T16:56:02.027Z,1020
2022-12-17T16:59:02.111Z,1020
2022-12-17T17:02:02.112Z,1020
2022-12-17T17:05:02.034Z,1020.1
2022-12-17T17:08:02.044Z,1020.1
2022-12-17T17:11:02.046Z,1020.1
2022-12-17T17:14:02.047Z,1020.1
2022-12-17T17:17:02.075Z,1020.1
2022-12-17T17:20:02.051Z,1020.1
2022-12-17T17:23:02.066Z,1020.1
2022-12-17T17:26:02.051Z,1020.1
2022-12-17T17:29:02.051Z,1020.2
2022-12-17T17:32:10.145Z,1020.1
2022-12-17T17:35:02.089Z,1020.2
2022-12-17T17:38:02.054Z,1020.2
2022-12-17T17:41:02.053Z,1020.1
2022-12-17T17:44:02.058Z,1020.2
2022-12-17T17:47:02.126Z,1020.2
2022-12-17T17:50:02.067Z,1020.2
2022-12-17T17:53:02.087Z,1020.3
2022-12-17T17:56:02.062Z,1020.5
2022-12-17T17:59:02.061Z,1020.5
2022-12-17T18:02:02.269Z,1020.5
2022-12-17T18:05:02.061Z,1020.6
2022-12-17T18:08:02.066Z,1020.6
2022-12-17T18:11:02.086Z,1020.6
2022-12-17T18:14:02.069Z,1020.6
2022-12-17T18:17:02.067Z,1020.6
2022-12-17T18:20:02.072Z,1020.6
2022-12-17T18:23:02.074Z,1020.7
2022-12-17T18:26:02.072Z,1020.7
2022-12-17T18:29:02.121Z,1020.8
2022-12-17T18:32:02.136Z,1020.8
2022-12-17T18:35:02.080Z,1020.9
2022-12-17T18:38:02.082Z,1020.8
2022-12-17T18:41:02.081Z,1020.8
2022-12-17T18:44:02.087Z,1020.8
2022-12-17T18:47:02.152Z,1020.8
2022-12-17T18:50:02.084Z,1020.9
2022-12-17T18:53:02.086Z,1020.9
2022-12-17T18:56:02.092Z,1021
2022-12-17T18:59:02.089Z,1021
2022-12-17T19:02:02.210Z,1021.1
2022-12-17T19:05:02.123Z,1021.2
2022-12-17T19:08:02.099Z,1021.2
2022-12-17T19:11:02.100Z,1021.2
2022-12-17T19:14:02.100Z,1021.2
2022-12-17T19:17:02.099Z,1021.3
2022-12-17T19:20:02.101Z,1021.3
2022-12-17T19:23:02.128Z,1021.3
2022-12-17T19:26:02.102Z,1021.2
2022-12-17T19:29:02.110Z,1021.3
2022-12-17T19:32:02.171Z,1021.3
2022-12-17T19:35:02.135Z,1021.3
2022-12-17T19:38:02.124Z,1021.3
2022-12-17T19:41:02.153Z,1021.3
2022-12-17T19:44:02.131Z,1021.3
2022-12-17T19:47:02.132Z,1021.3
2022-12-17T19:50:02.136Z,1021.4
2022-12-17T19:53:02.134Z,1021.5
2022-12-17T19:56:02.137Z,1021.5
2022-12-17T19:59:02.187Z,1021.5
2022-12-17T20:02:02.322Z,1021.5
2022-12-17T20:05:02.189Z,1021.5
2022-12-17T20:08:02.157Z,1021.4
2022-12-17T20:11:02.151Z,1021.4
2022-12-17T20:14:02.157Z,1021.4
2022-12-17T20:17:02.216Z,1021.5
2022-12-17T20:20:02.157Z,1021.4
2022-12-17T20:23:02.161Z,1021.3
2022-12-17T20:26:02.159Z,1021.4
2022-12-17T20:29:02.167Z,1021.4
2022-12-17T20:32:02.284Z,1021.6
2022-12-17T20:35:02.198Z,1021.6
2022-12-17T20:38:02.179Z,1021.5
2022-12-17T20:41:02.174Z,1021.6
2022-12-17T20:44:02.183Z,1021.7
2022-12-17T20:47:02.180Z,1021.6
2022-12-17T20:50:02.187Z,1021.5
2022-12-17T20:53:02.215Z,1021.5
2022-12-17T20:56:02.192Z,1021.6
2022-12-17T20:59:02.192Z,1021.6
2022-12-17T21:02:02.275Z,1021.6
2022-12-17T21:05:02.199Z,1021.6
2022-12-17T21:08:02.198Z,1021.7
2022-12-17T21:11:02.243Z,1021.7
2022-12-17T21:14:02.207Z,1021.8
2022-12-17T21:17:02.267Z,1021.8
2022-12-17T21:20:06.169Z,1021.8
2022-12-17T21:23:02.219Z,1021.8
2022-12-17T21:26:02.225Z,1021.8
2022-12-17T21:29:02.245Z,1021.8
2022-12-17T21:32:02.237Z,1021.9
2022-12-17T21:35:02.235Z,1021.8
2022-12-17T21:38:02.242Z,1022
2022-12-17T21:41:02.251Z,1022
2022-12-17T21:44:02.248Z,1022
2022-12-17T21:47:02.346Z,1022.1
2022-12-17T21:50:02.262Z,1022.1
2022-12-17T21:53:02.267Z,1022.1
2022-12-17T21:56:02.269Z,1022.1
2022-12-17T21:59:02.282Z,1022.2
2022-12-17T22:02:02.400Z,1022.3
2022-12-17T22:05:02.343Z,1022.2
2022-12-17T22:08:02.282Z,1022.3
2022-12-17T22:11:02.286Z,1022.1
2022-12-17T22:14:07.189Z,1022.1
2022-12-17T22:17:02.454Z,1022.1
2022-12-17T22:20:02.315Z,1022.1
2022-12-17T22:23:02.321Z,1022.1
2022-12-17T22:26:02.300Z,1022.1
2022-12-17T22:29:02.303Z,1022.2
2022-12-17T22:32:02.313Z,1022.2
2022-12-17T22:36:10.952Z,1022.2
2022-12-17T22:39:37.291Z,1022.3
2022-12-17T22:42:36.059Z,1022.2
2022-12-17T22:44:39.545Z,1022.3
2022-12-17T22:47:02.312Z,1022.3
2022-12-17T22:50:02.331Z,1022.3
2022-12-17T22:53:02.327Z,1022.3
2022-12-17T22:56:06.168Z,1022.3
2022-12-17T22:59:02.356Z,1022.3
2022-12-17T23:02:02.407Z,1022.3
2022-12-17T23:05:02.343Z,1022.2
2022-12-17T23:08:02.345Z,1022.2
2022-12-17T23:11:02.345Z,1022.2
2022-12-17T23:14:02.352Z,1022.2
2022-12-17T23:17:02.404Z,1022.2
2022-12-17T23:20:02.478Z,1022.3
2022-12-17T23:23:02.365Z,1022.2
2022-12-17T23:26:02.374Z,1022.3
2022-12-17T23:29:02.380Z,1022.4
2022-12-17T23:32:02.386Z,1022.3
2022-12-17T23:35:02.416Z,1022.3
2022-12-17T23:38:02.397Z,1022.3
2022-12-17T23:41:02.403Z,1022.2
2022-12-17T23:44:02.405Z,1022.2
2022-12-17T23:47:02.443Z,1022.3
2022-12-17T23:50:02.422Z,1022.1
2022-12-17T23:53:02.455Z,1022.2
2022-12-17T23:56:02.429Z,1022.2
2022-12-17T23:59:02.437Z,1022.2
